• Join FlightAware (Why Join?)
  • Login
  • US Flag 
04:06AM EDT


 

Airport Tracker/Info


-or-


 

Live Flight TrackerFlight Track Log ✈ SWA1969 ✈ 05-Apr-2013 ✈ KMDW - KMHT

Flight Track Log - Related Links

Times and Time Zones

All times are in EDT time to prevent confusion due to time zone crossing. See the SWA1969 flight status page for this flight to view local times or setup timezone preferences in your user account.

Time Position Orientation Groundspeed Altitude Reporting Facility
EDT Latitude Longitude Course Direction KTS MPH feet Rate Location/Type
11:33AM 41.8000 -87.6833 90° East 192 221 3,200  Level Chicago TRACON
11:34AM 41.8000 -87.5858 90° East 229 264 5,600 2,760 Climbing Chicago Center
11:35AM 41.8278 -87.4656 73° East 278 320 9,600 3,720 Climbing Chicago Center
11:36AM 41.8092 -87.3503 102° East 315 362 13,300 3,000 Climbing Chicago Center
11:37AM 41.7889 -87.2172 102° East 350 403 15,800 2,580 Climbing Chicago Center
11:38AM 41.7500 -86.9612 90° East  Level FlightAware Approximate
11:38AM 41.7647 -87.0733 103° East 385 443 18,600  Level Chicago Center
11:39AM 41.7650 -86.9231 90° East 402 463 21,300 2,520 Climbing Chicago Center
11:40AM 41.7653 -86.7667 90° East 416 479 23,900 2,460 Climbing Chicago Center
11:42AM 41.7664 -86.6008 89° East 436 502 26,400 2,220 Climbing Chicago Center
11:43AM 41.7708 -86.4383 88° East 436 502 28,500 2,040 Climbing Chicago Center
11:44AM 41.7997 -86.2442 79° East 445 512 30,600 1,740 Climbing Chicago Center
11:45AM 41.8208 -86.0775 80° East 453 521 32,200 1,800 Climbing Chicago Center
11:46AM 41.8433 -85.9083 80° East 457 526 34,300 1,800 Climbing Chicago Center
11:47AM 41.8650 -85.7422 80° East 451 519 36,000 1,440 Climbing Chicago Center
11:48AM 41.8861 -85.5767 80° East 446 513 37,300 1,020 Climbing Chicago Center
11:49AM 41.9075 -85.4056 80° East 458 527 38,200 840 Climbing Chicago Center
11:49AM 41.9178 -85.3333 79° East 459 528 38,600 540 Climbing Cleveland Center
11:50AM 41.9394 -85.1619 80° East 465 535 39,000 180 Climbing Cleveland Center
11:51AM 41.9608 -84.9872 81° East 465 535 39,000  Level Cleveland Center
11:52AM 41.9819 -84.8156 81° East 465 535 39,000  Level Cleveland Center
11:53AM 42.0006 -84.6464 82° East 465 535 39,000  Level Cleveland Center
11:54AM 42.0192 -84.4714 82° East 465 535 39,000  Level Cleveland Center
11:55AM 42.0414 -84.2992 80° East 465 535 39,000  Level Cleveland Center
11:56AM 42.0600 -84.1072 82° East 465 535 39,000  Level Cleveland Center
11:57AM 42.0778 -83.9319 82° East 465 535 39,000  Level Cleveland Center
11:58AM 42.0997 -83.7511 81° East 470 541 39,000  Level Cleveland Center
11:59AM 42.1147 -83.5783 83° East 470 541 39,000  Level Cleveland Center
12:00PM 42.1361 -83.3972 81° East 483 556 39,000  Level Cleveland Center
12:01PM 42.1550 -83.2161 82° East 483 556 39,000  Level Cleveland Center
12:02PM 42.1731 -83.0514 82° East 490 564 39,000  Level Cleveland Center
12:03PM 42.1936 -82.8672 81° East 490 564 39,000  Level Cleveland Center
12:04PM 42.2117 -82.6831 82° East 495 570 39,000  Level Cleveland Center
12:05PM 42.2275 -82.5011 83° East 495 570 39,000  Level Cleveland Center
12:06PM 42.2469 -82.3139 82° East 495 570 39,000  Level Cleveland Center
12:07PM 42.2642 -82.1319 83° East 495 570 39,000  Level Cleveland Center
12:08PM 42.2833 -81.9472 82° East 500 575 39,000  Level Cleveland Center
12:09PM 42.2997 -81.7678 83° East 493 567 39,000  Level Cleveland Center
12:10PM 42.3183 -81.5689 83° East 487 560 39,000  Level Cleveland Center
12:11PM 42.3325 -81.3808 84° East 482 555 39,000  Level Cleveland Center
12:12PM 42.3522 -81.2069 81° East 482 555 39,000  Level Cleveland Center
12:13PM 42.3656 -81.0244 84° East 481 554 39,000  Level Cleveland Center
12:14PM 42.3786 -80.8417 84° East 481 554 39,000  Level Cleveland Center
12:15PM 42.3956 -80.6619 83° East 481 554 39,000  Level Cleveland Center
12:16PM 42.4081 -80.4819 85° East 481 554 39,000  Level Cleveland Center
12:17PM 42.4244 -80.3019 83° East 481 554 39,000  Level Cleveland Center
12:18PM 42.4364 -80.1386 84° East 481 554 39,000  Level Cleveland Center
12:19PM 42.4503 -79.9528 84° East 481 554 39,000  Level Cleveland Center
12:20PM 42.4656 -79.7472 84° East 487 560 39,000  Level Cleveland Center
12:21PM 42.4828 -79.5669 83° East 487 560 39,000  Level Cleveland Center
12:22PM 42.4956 -79.3836 85° East 487 560 39,000  Level Cleveland Center
12:23PM 42.5061 -79.2003 85° East 482 555 39,000  Level Cleveland Center
12:24PM 42.5206 -79.0169 84° East 482 555 39,000 -300 Level Cleveland Center
12:25PM 42.5303 -78.8336 86° East 482 555 38,500 -780 Descending Cleveland Center
12:26PM 42.5419 -78.6528 85° East 482 555 37,500 -540 Descending Cleveland Center
12:28PM 42.5664 -78.2772 85° East 488 562 37,000 -180 Descending Cleveland Center
12:29PM 42.5772 -78.0906 85° East 493 567 37,000  Level Cleveland Center
12:30PM 42.5875 -77.9039 86° East 498 573 37,000  Level Cleveland Center
12:31PM 42.5983 -77.7400 85° East 498 573 37,000  Level Cleveland Center
12:33PM 42.6172 -77.3561 86° East 480 552 37,000  Level Boston Center
12:34PM 42.6272 -77.1675 86° East 491 565 37,000  Level Boston Center
12:35PM 42.6372 -76.9764 86° East 496 571 37,000  Level Boston Center
12:36PM 42.6467 -76.7850 86° East 496 571 37,000  Level Boston Center
12:37PM 42.6539 -76.5933 87° East 501 577 37,000  Level Boston Center
12:38PM 42.6631 -76.3964 86° East 507 583 37,000  Level Boston Center
12:39PM 42.6736 -76.2078 86° East 507 583 37,000  Level Boston Center
12:40PM 42.6817 -76.0189 87° East 502 578 37,000  Level Boston Center
12:41PM 42.6875 -75.8328 87° East 497 572 37,000  Level Boston Center
12:42PM 42.6950 -75.6467 87° East 497 572 37,000  Level Boston Center
12:43PM 42.6989 -75.4969 88° East 492 566 37,000 -540 Level Boston Center
12:44PM 42.7064 -75.2967 87° East 492 566 36,000 -1,800 Descending Boston Center
12:45PM 42.7128 -75.1133 87° East 492 566 33,400 -2,340 Descending Boston Center
12:46PM 42.7192 -74.9300 87° East 492 566 31,300 -2,040 Descending Boston Center
12:47PM 42.7250 -74.7519 87° East 481 554 29,300 -1,200 Descending Boston Center
12:48PM 42.7306 -74.5769 87° East 467 537 29,000 -180 Descending Boston Center
12:49PM 42.7339 -74.3906 89° East 473 544 29,000  Level Boston Center
12:50PM 42.7369 -74.1956 89° East 489 563 29,000 -1,080 Level Boston Center
12:51PM 42.7417 -74.0092 88° East 495 570 26,900 -2,400 Descending Boston Center
12:52PM 42.7464 -73.8197 88° East 495 570 24,200 -1,920 Descending Boston Center
12:53PM 42.7547 -73.6333 86° East 495 570 23,200 -1,020 Descending Boston Center
12:54PM 42.7628 -73.4581 86° East 483 556 22,200 -1,020 Descending Boston Center
12:55PM 42.7661 -73.2772 89° East 477 549 21,200 -1,020 Descending Boston Center
12:56PM 42.7736 -73.0850 87° East 466 536 20,200 -1,080 Descending Boston Center
12:57PM 42.7786 -72.9069 88° East 466 536 19,100 -600 Descending Boston Center
12:58PM 42.7856 -72.7400 87° East 454 522 19,000 -780 Descending Boston Center
12:59PM 42.7881 -72.5731 89° East 449 517 17,600 -4,980 Descending Boston Center
01:00PM 42.7922 -72.4061 88° East 438 504 9,000 -3,000 Descending Boston Center
01:01PM 42.7983 -72.2447 87° East 433 498 11,800 660 Climbing Boston Center
01:02PM 42.8083 -72.1006 85° East 396 456 10,400 -1,200 Descending Boston Center
01:03PM 42.8183 -71.9675 84° East 368 423 9,500 -1,080 Descending Boston Center
01:04PM 42.8303 -71.8511 82° East 320 368 8,300 -1,200 Descending Boston Center
01:05PM 42.8381 -71.7378 85° East 307 353 7,100 -1,380 Descending Boston Center
01:06PM 42.8414 -71.6303 88° East 286 329 5,600 -1,320 Descending Boston Center
01:07PM 42.8136 -71.5344 112° Southeast 270 311 4,500 -1,020 Descending Boston Center
01:08PM 42.7919 -71.4469 109° East 251 289 3,600 -780 Descending Boston Center
01:09PM 42.8228 -71.3956 51° Northeast 172 198 3,000 -900 Descending Boston Center
01:10PM 42.8478 -71.3867 15° North 132 152 1,900 -1,080 Descending Boston Center
01:11PM 42.8939 -71.4114 339° North 127 146 900 -720 Descending Boston Center
01:12PM 42.9231 -71.4278 338° Northwest 132 152 500 4,080 Descending Boston Center
01:13PM 42.9547 -71.4500 333° Northwest 132 152 9,000 4,200 Climbing Boston Center
01:14PM 42.9861 -71.4694 336° Northwest 132 152 9,000  Level Boston Center
01:15PM 43.0175 -71.4917 333° Northwest 132 152 9,000  Level Boston Center
01:16PM 43.0364 -71.5028 337° Northwest 132 152 9,000  Level Boston Center
01:18PM 42.9328 -71.4358 157° South  Level Estimated
01:25PM 42.9328 -71.4358 157° South  Level Estimated
01:26PM 42.9328 -71.4358 157° South  Level Estimated
01:27PM 42.9328 -71.4358 157° South  Level Estimated
01:28PM 42.9328 -71.4358 157° South  Level Estimated